Time;durP1;ratioP1;P1;durP2;ratioP2;P2;SDS_P1;SDS_P2;PMS_P1;PMS_P2;Temp;Humidity;BMP_temperature;BMP_pressure;BME280_temperature;BME280_humidity;BME280_pressure;Samples;Min_cycle;Max_cycle;Signal;HPM_P1;HPM_P2
2022/05/19 00:02:14;;;;;;;4.73;2.03;;;12.70;1.00;;;;;;5054636;28;20247;-82
2022/05/19 00:04:42;;;;;;;5.43;2.27;;;12.70;1.00;;;;;;5054510;28;20239;-82
2022/05/19 00:07:11;;;;;;;5.43;2.03;;;12.70;1.00;;;;;;5053830;28;20613;-82
2022/05/19 00:09:39;;;;;;;4.53;1.77;;;12.60;1.00;;;;;;5052750;28;20723;-82
2022/05/19 00:12:11;;;;;;;6.00;2.10;;;12.60;1.00;;;;;;5052755;28;20247;-81
2022/05/19 00:14:38;;;;;;;2.93;1.77;;;12.60;1.00;;;;;;5054436;28;20235;-82
2022/05/19 00:17:06;;;;;;;6.57;1.90;;;12.60;1.00;;;;;;5054353;28;20190;-82
2022/05/19 00:19:33;;;;;;;2.70;1.77;;;12.50;1.00;;;;;;5054357;28;20200;-82
2022/05/19 00:22:00;;;;;;;6.43;2.20;;;12.50;1.00;;;;;;5039349;28;20209;-82
2022/05/19 00:24:29;;;;;;;3.63;2.03;;;12.50;1.00;;;;;;5034251;28;20205;-82
2022/05/19 00:26:56;;;;;;;7.23;2.13;;;12.50;1.00;;;;;;5033984;28;20194;-82
2022/05/19 00:29:23;;;;;;;3.80;2.10;;;12.50;1.00;;;;;;5033973;28;20193;-82
2022/05/19 00:31:50;;;;;;;4.30;2.07;;;12.50;1.00;;;;;;5034068;28;20202;-82
2022/05/19 00:34:17;;;;;;;3.50;1.87;;;12.50;1.00;;;;;;5033880;28;20193;-81
2022/05/19 00:36:44;;;;;;;7.20;2.00;;;12.50;1.00;;;;;;5033953;28;20284;-81
2022/05/19 00:39:12;;;;;;;5.00;1.90;;;12.50;1.00;;;;;;5033724;28;20183;-82
2022/05/19 00:41:43;;;;;;;2.90;2.00;;;12.50;1.00;;;;;;5033909;28;20358;-81
2022/05/19 00:44:10;;;;;;;5.43;2.10;;;12.50;1.00;;;;;;5033806;28;20238;-82
2022/05/19 00:46:43;;;;;;;7.47;1.87;;;12.50;1.00;;;;;;5033532;28;20233;-82
2022/05/19 00:49:15;;;;;;;2.70;1.90;;;12.50;1.00;;;;;;5033640;28;20182;-82
2022/05/19 00:51:46;;;;;;;3.50;2.10;;;12.40;1.00;;;;;;5034337;28;20186;-82
2022/05/19 00:54:17;;;;;;;7.07;2.10;;;12.40;1.00;;;;;;5033706;28;20186;-82
2022/05/19 00:56:49;;;;;;;3.93;1.87;;;12.40;1.00;;;;;;5033402;28;20182;-82
2022/05/19 00:59:22;;;;;;;3.97;1.90;;;12.40;1.00;;;;;;5033876;28;20179;-82
2022/05/19 01:01:50;;;;;;;4.60;2.17;;;12.40;1.00;;;;;;5033463;28;20209;-82
2022/05/19 01:04:25;;;;;;;3.47;1.97;;;12.30;1.00;;;;;;5033501;28;20221;-82
2022/05/19 01:06:57;;;;;;;2.87;1.80;;;12.30;1.00;;;;;;5033477;28;20251;-82
2022/05/19 01:09:24;;;;;;;2.80;1.90;;;12.30;1.00;;;;;;5033520;28;20239;-81
2022/05/19 01:11:55;;;;;;;3.70;1.80;;;12.30;1.00;;;;;;5033000;28;20651;-81
2022/05/19 01:14:23;;;;;;;4.23;2.50;;;12.30;1.00;;;;;;5033042;28;20705;-82
2022/05/19 01:16:50;;;;;;;5.57;2.30;;;12.20;1.00;;;;;;5033338;28;20193;-81
2022/05/19 01:19:27;;;;;;;3.13;1.90;;;12.30;1.00;;;;;;5033361;28;20283;-81
2022/05/19 01:22:02;;;;;;;4.07;1.80;;;12.30;1.00;;;;;;5045537;28;20223;-81
2022/05/19 01:24:39;;;;;;;4.60;1.83;;;12.30;1.00;;;;;;5053119;28;20185;-82
2022/05/19 01:27:07;;;;;;;3.43;1.90;;;12.30;1.00;;;;;;5053009;28;20636;-82
2022/05/19 01:29:34;;;;;;;4.87;2.17;;;12.30;1.00;;;;;;5052800;28;20193;-81
2022/05/19 01:32:03;;;;;;;3.13;2.20;;;12.30;1.00;;;;;;5052568;28;20197;-82
2022/05/19 01:34:32;;;;;;;4.47;1.90;;;12.30;1.00;;;;;;5052693;28;20188;-82
2022/05/19 01:37:00;;;;;;;3.27;1.80;;;12.30;1.00;;;;;;5052393;28;20777;-82
2022/05/19 01:39:29;;;;;;;5.47;2.30;;;12.30;1.00;;;;;;5052518;28;20185;-82
2022/05/19 01:42:12;;;;;;;5.10;2.00;;;12.30;1.00;;;;;;5052295;28;20646;-81
2022/05/19 01:44:50;;;;;;;4.50;2.10;;;12.30;1.00;;;;;;5052804;28;20182;-82
2022/05/19 01:47:30;;;;;;;4.80;2.10;;;12.30;1.00;;;;;;5052688;28;20208;-82
2022/05/19 01:50:03;;;;;;;5.57;1.80;;;12.30;1.00;;;;;;5052361;28;20694;-82
2022/05/19 01:52:39;;;;;;;2.63;1.70;;;12.30;1.00;;;;;;5034647;28;20277;-82
2022/05/19 01:55:12;;;;;;;4.47;2.03;;;12.30;1.00;;;;;;5033069;28;20234;-82
2022/05/19 01:57:48;;;;;;;2.73;1.80;;;12.30;1.00;;;;;;5033752;28;20183;-82
2022/05/19 02:00:19;;;;;;;7.23;2.13;;;12.30;1.00;;;;;;5032132;28;20239;-81
2022/05/19 02:02:52;;;;;;;6.63;2.00;;;12.30;1.00;;;;;;5032529;28;20204;-82
2022/05/19 02:05:30;;;;;;;5.53;1.90;;;12.30;1.00;;;;;;5032144;28;20548;-82
2022/05/19 02:07:59;;;;;;;2.60;1.83;;;12.20;1.00;;;;;;5032553;28;20193;-82
2022/05/19 02:10:29;;;;;;;3.30;1.87;;;12.20;1.00;;;;;;5032395;28;20357;-82
2022/05/19 02:13:01;;;;;;;4.07;2.00;;;12.20;1.00;;;;;;5032624;28;20202;-82
2022/05/19 02:15:32;;;;;;;4.50;2.27;;;12.20;1.00;;;;;;5032030;28;20185;-82
2022/05/19 02:17:59;;;;;;;2.87;2.00;;;12.20;1.00;;;;;;5032240;28;20239;-82
2022/05/19 02:20:28;;;;;;;4.10;1.83;;;12.20;1.00;;;;;;5032165;28;20186;-82
2022/05/19 02:22:56;;;;;;;5.77;2.20;;;12.20;1.00;;;;;;5050647;28;20315;-82
2022/05/19 02:25:29;;;;;;;4.93;2.10;;;12.20;1.00;;;;;;5052057;28;20193;-82
2022/05/19 02:28:02;;;;;;;3.23;1.93;;;12.20;1.00;;;;;;5052152;28;20187;-82
2022/05/19 02:30:32;;;;;;;2.63;1.83;;;12.20;1.00;;;;;;5051786;28;20188;-82
2022/05/19 02:32:59;;;;;;;4.40;2.33;;;12.20;1.00;;;;;;5051257;28;20201;-82
2022/05/19 02:35:26;;;;;;;4.60;1.80;;;12.10;1.00;;;;;;5052009;28;20249;-82
2022/05/19 02:37:54;;;;;;;3.90;2.17;;;12.20;1.00;;;;;;5051612;28;20232;-82
2022/05/19 02:40:23;;;;;;;5.03;2.07;;;12.20;1.00;;;;;;5052210;28;20193;-82
2022/05/19 02:42:50;;;;;;;3.37;1.77;;;12.10;1.00;;;;;;5052231;28;20270;-82
2022/05/19 02:45:20;;;;;;;4.23;2.07;;;12.10;1.00;;;;;;5052249;28;20189;-82
2022/05/19 02:47:48;;;;;;;5.13;2.00;;;12.10;1.00;;;;;;5052414;28;20200;-82
2022/05/19 02:50:16;;;;;;;3.13;1.97;;;12.10;1.00;;;;;;5051949;28;20640;-82
2022/05/19 02:52:43;;;;;;;6.20;2.10;;;12.10;1.00;;;;;;5051426;28;20189;-82
2022/05/19 02:55:11;;;;;;;4.70;1.93;;;12.10;1.00;;;;;;5052538;28;20188;-82
2022/05/19 02:57:38;;;;;;;2.63;2.07;;;12.10;1.00;;;;;;5051963;28;20682;-81
2022/05/19 03:00:09;;;;;;;6.77;2.50;;;12.10;1.00;;;;;;5052048;28;20196;-81
2022/05/19 03:02:37;;;;;;;6.03;2.77;;;12.10;1.00;;;;;;5052362;28;20213;-82
2022/05/19 03:05:12;;;;;;;4.27;2.20;;;12.10;1.00;;;;;;5059755;28;20192;-85
2022/05/19 03:07:39;;;;;;;4.20;1.93;;;12.10;1.00;;;;;;5060088;28;20272;-84
2022/05/19 03:10:07;;;;;;;5.23;2.03;;;12.10;1.00;;;;;;5060639;28;20197;-84
2022/05/19 03:12:34;;;;;;;4.20;2.10;;;12.10;1.00;;;;;;5059702;28;20248;-84
2022/05/19 03:15:10;;;;;;;3.33;2.03;;;12.10;1.00;;;;;;5060168;28;20197;-85
2022/05/19 03:17:42;;;;;;;2.80;2.20;;;12.10;1.00;;;;;;5061103;28;20177;-85
2022/05/19 03:20:17;;;;;;;3.60;1.90;;;12.20;1.00;;;;;;5059550;28;20181;-84
2022/05/19 03:22:44;;;;;;;4.90;2.20;;;12.20;1.00;;;;;;5052467;28;20201;-85
2022/05/19 03:25:15;;;;;;;6.33;2.03;;;12.20;1.00;;;;;;5058840;28;20236;-84
2022/05/19 03:27:48;;;;;;;8.33;2.20;;;12.20;1.00;;;;;;5058133;28;20201;-83
2022/05/19 03:30:17;;;;;;;4.93;2.20;;;12.30;1.00;;;;;;5058317;28;20203;-82
2022/05/19 03:32:48;;;;;;;3.40;1.97;;;12.30;1.00;;;;;;5057715;28;20657;-87
2022/05/19 03:35:16;;;;;;;5.47;2.40;;;12.30;1.00;;;;;;5059769;28;20181;-83
2022/05/19 03:37:44;;;;;;;3.73;2.20;;;12.30;1.00;;;;;;5057951;28;20263;-83
2022/05/19 03:40:13;;;;;;;4.67;2.33;;;12.40;1.00;;;;;;5059082;28;20191;-84
2022/05/19 03:42:41;;;;;;;4.53;2.20;;;12.40;1.00;;;;;;5061182;28;20217;-83
2022/05/19 03:45:17;;;;;;;5.40;2.70;;;12.50;1.00;;;;;;5061785;28;20635;-84
2022/05/19 03:47:44;;;;;;;8.77;2.90;;;12.50;1.00;;;;;;5061682;28;20184;-85
2022/05/19 03:50:24;;;;;;;7.40;2.60;;;12.60;1.00;;;;;;5062002;28;20243;-86
2022/05/19 03:52:51;;;;;;;10.00;2.80;;;12.80;1.00;;;;;;5043450;28;20237;-85
2022/05/19 03:55:24;;;;;;;5.97;2.30;;;13.20;1.00;;;;;;5040778;28;20291;-84
2022/05/19 03:57:54;;;;;;;3.83;2.10;;;13.80;1.00;;;;;;5042075;28;20181;-83
2022/05/19 04:00:22;;;;;;;4.43;1.90;;;14.30;1.00;;;;;;5039020;28;20186;-86
2022/05/19 04:03:00;;;;;;;2.93;1.90;;;15.00;1.00;;;;;;5042593;28;20224;-87
2022/05/19 04:05:29;;;;;;;2.90;2.00;;;15.90;1.00;;;;;;5038420;28;20310;-84
2022/05/19 04:07:56;;;;;;;4.03;2.42;;;16.60;1.00;;;;;;5039464;28;20198;-83
2022/05/19 04:10:32;;;;;;;2.78;2.00;;;17.40;1.00;;;;;;5048846;28;20187;-85
2022/05/19 04:12:59;;;;;;;5.80;1.83;;;18.20;1.00;;;;;;5057106;28;20262;-84
2022/05/19 04:15:29;;;;;;;3.88;1.90;;;18.90;1.00;;;;;;5062970;28;20200;-83
2022/05/19 04:17:56;;;;;;;5.25;1.90;;;19.60;1.00;;;;;;5060625;28;20281;-82
2022/05/19 04:20:23;;;;;;;7.05;1.92;;;20.40;1.00;;;;;;5060304;28;20203;-88
2022/05/19 04:22:51;;;;;;;6.07;1.92;;;21.10;1.00;;;;;;5059689;28;20649;-84
2022/05/19 04:25:18;;;;;;;4.60;2.15;;;21.70;1.00;;;;;;5062149;28;20718;-84
2022/05/19 04:27:45;;;;;;;40.33;5.32;;;22.20;1.00;;;;;;5062608;28;20219;-88
2022/05/19 04:30:12;;;;;;;40.20;5.28;;;22.80;1.00;;;;;;5060979;28;20189;-83
2022/05/19 04:32:39;;;;;;;25.48;4.30;;;23.20;1.00;;;;;;5060610;28;20428;-84
2022/05/19 04:35:17;;;;;;;8.85;2.60;;;23.60;1.00;;;;;;5059781;28;20238;-86
2022/05/19 04:37:44;;;;;;;9.05;2.15;;;24.10;1.00;;;;;;5063575;28;20228;-83
2022/05/19 04:40:13;;;;;;;7.75;2.33;;;24.40;1.00;;;;;;5060796;28;20193;-84
2022/05/19 04:42:41;;;;;;;5.20;1.80;;;25.00;1.00;;;;;;5062217;28;20209;-84
2022/05/19 04:45:15;;;;;;;5.47;2.05;;;25.40;1.00;;;;;;5061466;28;20090;-87
2022/05/19 04:47:42;;;;;;;4.22;2.03;;;25.80;1.00;;;;;;5060840;28;20592;-84
2022/05/19 04:50:18;;;;;;;3.35;1.90;;;26.20;1.00;;;;;;5060147;28;20634;-84
2022/05/19 04:52:45;;;;;;;3.35;2.03;;;26.60;1.00;;;;;;5061943;28;20205;-85
2022/05/19 04:55:13;;;;;;;4.57;2.38;;;27.00;1.00;;;;;;5058523;28;20262;-84
2022/05/19 04:57:43;;;;;;;4.18;2.25;;;27.20;1.00;;;;;;5061329;28;20196;-85
2022/05/19 05:00:13;;;;;;;15.85;3.15;;;27.30;1.00;;;;;;5059784;28;20201;-87
2022/05/19 05:02:43;;;;;;;13.73;3.10;;;27.50;1.00;;;;;;5040347;28;20248;-86
2022/05/19 05:05:19;;;;;;;8.27;2.38;;;27.80;1.00;;;;;;5040109;28;20205;-83
2022/05/19 05:07:46;;;;;;;5.05;2.10;;;28.20;1.00;;;;;;5037729;28;20170;-86
2022/05/19 05:10:14;;;;;;;4.68;2.00;;;28.50;1.00;;;;;;5041891;28;20197;-87
2022/05/19 05:12:47;;;;;;;11.63;2.75;;;28.60;1.00;;;;;;5038116;28;20678;-86
2022/05/19 05:15:20;;;;;;;11.80;3.40;;;28.70;1.00;;;;;;5034437;28;20221;-83
2022/05/19 05:17:50;;;;;;;10.98;2.45;;;28.90;1.00;;;;;;5040365;28;20236;-85
2022/05/19 05:20:17;;;;;;;5.65;2.53;;;29.00;1.00;;;;;;5039135;28;20201;-88
2022/05/19 05:22:53;;;;;;;6.18;2.33;;;29.00;1.00;;;;;;5040665;28;20197;-86
2022/05/19 05:25:21;;;;;;;3.58;2.25;;;29.10;1.00;;;;;;5041729;28;20189;-83
2022/05/19 05:27:48;;;;;;;14.40;3.17;;;29.30;1.00;;;;;;5041549;28;20202;-84
2022/05/19 05:30:15;;;;;;;12.75;3.10;;;29.10;1.00;;;;;;5041681;28;20728;-83
2022/05/19 05:32:42;;;;;;;7.30;2.33;;;29.10;1.00;;;;;;5056710;28;20224;-85
2022/05/19 05:35:10;;;;;;;8.32;2.60;;;29.10;1.00;;;;;;5060208;28;20259;-87
2022/05/19 05:37:38;;;;;;;5.13;2.30;;;29.00;1.00;;;;;;5060296;28;20307;-84
2022/05/19 05:40:07;;;;;;;5.07;2.38;;;29.30;1.00;;;;;;5056991;28;20194;-85
2022/05/19 05:42:35;;;;;;;8.38;2.33;;;29.60;1.00;;;;;;5059316;28;20228;-87
2022/05/19 05:45:15;;;;;;;11.43;2.15;;;29.80;1.00;;;;;;5060504;28;20197;-88
2022/05/19 05:47:50;;;;;;;5.78;2.42;;;30.00;1.00;;;;;;5059386;28;20185;-87
2022/05/19 05:50:17;;;;;;;4.93;2.03;;;30.40;1.00;;;;;;5058393;28;20649;-85
2022/05/19 05:52:44;;;;;;;4.47;2.03;;;30.70;1.00;;;;;;5060868;28;20267;-85
2022/05/19 05:55:12;;;;;;;;;;;31.20;1.00;;;;;;5059709;28;20080;-87
2022/05/19 05:57:41;;;;;;;6.55;2.50;;;31.50;1.00;;;;;;5060266;28;19943;-88
2022/05/19 06:00:10;;;;;;;3.80;2.10;;;32.00;1.00;;;;;;5057112;28;20242;-85
2022/05/19 06:02:38;;;;;;;12.00;3.00;;;32.30;1.00;;;;;;5035818;28;20649;-86
2022/05/19 06:05:06;;;;;;;31.70;4.07;;;32.50;1.00;;;;;;5037641;28;20198;-88
2022/05/19 06:07:33;;;;;;;6.93;2.42;;;32.50;1.00;;;;;;5038771;28;20213;-87
2022/05/19 06:10:04;;;;;;;5.97;1.85;;;32.30;1.00;;;;;;5039025;28;20198;-88
2022/05/19 06:12:31;;;;;;;9.73;2.60;;;32.20;1.00;;;;;;5038744;28;20217;-84
2022/05/19 06:14:59;;;;;;;6.80;2.35;;;32.20;1.00;;;;;;5037887;28;20243;-85
2022/05/19 06:17:26;;;;;;;4.03;2.20;;;32.50;1.00;;;;;;5036938;28;20193;-83
2022/05/19 06:19:53;;;;;;;6.03;2.08;;;32.60;1.00;;;;;;5037536;28;20243;-85
2022/05/19 06:22:26;;;;;;;5.82;2.13;;;32.70;1.00;;;;;;5039580;28;20197;-87
2022/05/19 06:24:57;;;;;;;5.68;2.28;;;32.60;1.00;;;;;;5041763;28;20644;-87
2022/05/19 06:27:30;;;;;;;3.90;2.40;;;32.40;1.00;;;;;;5037922;28;20269;-84
2022/05/19 06:29:57;;;;;;;3.92;1.92;;;32.40;1.00;;;;;;5039960;28;20300;-85
2022/05/19 06:32:25;;;;;;;5.90;2.05;;;32.50;1.00;;;;;;5061691;28;20216;-87
2022/05/19 06:34:52;;;;;;;7.20;2.40;;;32.30;1.00;;;;;;5058635;28;20219;-85
2022/05/19 06:37:19;;;;;;;6.47;2.30;;;32.20;1.00;;;;;;5039423;28;20268;-84
2022/05/19 06:39:46;;;;;;;6.55;2.72;;;32.00;1.00;;;;;;5038219;28;20193;-85
2022/05/19 06:42:14;;;;;;;10.68;2.90;;;31.80;1.00;;;;;;5040009;28;20204;-84
2022/05/19 06:44:43;;;;;;;5.65;2.58;;;31.80;1.00;;;;;;5037374;28;20197;-85
2022/05/19 06:47:14;;;;;;;7.18;3.35;;;32.00;1.00;;;;;;5037703;28;20196;-85
2022/05/19 06:49:43;;;;;;;;;;;32.40;1.00;;;;;;5040325;28;20052;-83
2022/05/19 06:52:11;;;;;;;;;;;32.80;1.00;;;;;;5039230;28;19925;-84
2022/05/19 06:54:38;;;;;;;;;;;33.20;1.00;;;;;;5036528;28;19921;-86
2022/05/19 06:57:05;;;;;;;;;;;33.20;1.00;;;;;;5038379;28;19921;-85
2022/05/19 06:59:31;;;;;;;;;;;32.90;1.00;;;;;;5039128;28;19928;-86
2022/05/19 07:02:00;;;;;;;6.30;2.55;;;32.70;1.00;;;;;;5038346;28;20032;-84
2022/05/19 07:04:27;;;;;;;6.20;2.60;;;32.70;1.00;;;;;;5038586;28;20205;-86
2022/05/19 07:06:55;;;;;;;4.60;2.60;;;32.80;1.00;;;;;;5056263;28;20716;-84
2022/05/19 07:09:30;;;;;;;6.43;2.38;;;32.90;1.00;;;;;;5056570;28;20188;-89
2022/05/19 07:11:57;;;;;;;6.63;2.10;;;33.10;1.00;;;;;;5055789;28;20621;-83
2022/05/19 07:14:31;;;;;;;6.45;2.30;;;33.40;1.00;;;;;;5056283;28;20177;-86
2022/05/19 07:16:58;;;;;;;12.75;2.70;;;33.90;1.00;;;;;;5056745;28;20181;-86
2022/05/19 07:22:16;;;;;;;13.48;2.67;;;34.30;1.00;;;;;;5060531;28;20180;-87
2022/05/19 07:24:53;;;;;;;8.73;2.40;;;34.50;1.00;;;;;;5061296;28;20185;-81
2022/05/19 07:27:20;;;;;;;4.85;2.10;;;34.60;1.00;;;;;;5062798;28;20203;-84
2022/05/19 07:29:47;;;;;;;;;;;34.90;1.00;;;;;;5061910;28;20083;-83
2022/05/19 07:32:22;;;;;;;9.40;2.45;;;35.10;1.00;;;;;;5042867;28;20659;-83
2022/05/19 07:34:49;;;;;;;10.13;2.85;;;35.30;1.00;;;;;;5042889;28;20185;-83
2022/05/19 07:37:27;;;;;;;6.53;2.40;;;35.70;1.00;;;;;;5043528;28;20213;-85
2022/05/19 07:40:08;;;;;;;7.97;2.38;;;36.20;1.00;;;;;;5045451;28;20565;-86
2022/05/19 07:42:35;;;;;;;4.80;1.83;;;36.40;1.00;;;;;;5046734;28;20182;-85
2022/05/19 07:45:11;;;;;;;5.53;2.20;;;36.50;1.00;;;;;;5043748;28;20189;-83
2022/05/19 07:47:39;;;;;;;10.30;2.40;;;36.70;1.00;;;;;;5047795;28;20186;-85
2022/05/19 07:50:09;;;;;;;4.55;2.30;;;36.70;1.00;;;;;;5044145;28;20162;-85
2022/05/19 07:52:38;;;;;;;7.28;2.10;;;36.80;1.00;;;;;;5043200;28;20209;-83
2022/05/19 07:55:25;;;;;;;5.63;2.20;;;36.60;1.00;;;;;;5042962;28;20220;-84
2022/05/19 07:58:06;;;;;;;4.20;2.45;;;36.40;1.00;;;;;;5045016;28;20169;-88
2022/05/19 08:00:34;;;;;;;5.90;2.05;;;35.90;1.00;;;;;;5043531;28;20228;-86
2022/05/19 08:03:09;;;;;;;6.47;2.30;;;35.80;1.00;;;;;;5043615;28;20205;-85
2022/05/19 08:05:36;;;;;;;5.05;1.90;;;35.70;1.00;;;;;;5045131;28;20212;-83
2022/05/19 08:08:07;;;;;;;9.57;2.75;;;35.60;1.00;;;;;;5049077;28;20292;-88
2022/05/19 08:10:38;;;;;;;5.03;2.17;;;35.50;1.00;;;;;;5064983;28;20188;-84
2022/05/19 08:15:59;;;;;;;6.93;2.20;;;35.60;1.00;;;;;;5063429;28;20187;-88
2022/05/19 08:18:28;;;;;;;12.43;2.88;;;35.60;1.00;;;;;;5062186;28;20195;-86
2022/05/19 08:20:58;;;;;;;9.05;2.58;;;35.60;1.00;;;;;;5065366;28;20567;-84
2022/05/19 08:23:28;;;;;;;4.97;2.00;;;35.40;1.00;;;;;;5061259;28;20222;-84
2022/05/19 08:26:01;;;;;;;6.07;1.92;;;35.40;1.00;;;;;;5057904;28;20204;-84
2022/05/19 08:28:30;;;;;;;8.30;2.28;;;35.50;1.00;;;;;;5042816;28;20161;-85
2022/05/19 08:31:03;;;;;;;6.63;1.95;;;35.50;1.00;;;;;;5043935;28;20189;-87
2022/05/19 08:33:33;;;;;;;4.55;1.90;;;35.50;1.00;;;;;;5047465;28;20343;-86
2022/05/19 08:36:10;;;;;;;9.20;2.60;;;35.60;1.00;;;;;;5040671;28;20170;-83
2022/05/19 08:38:40;;;;;;;9.20;2.80;;;35.80;1.00;;;;;;5043813;28;20233;-85
2022/05/19 08:41:09;;;;;;;7.55;3.05;;;35.60;1.00;;;;;;5041848;28;20238;-83
2022/05/19 08:43:44;;;;;;;3.47;2.47;;;35.50;1.00;;;;;;5046912;28;20201;-84
2022/05/19 08:46:24;;;;;;;3.05;2.03;;;35.50;1.00;;;;;;5044801;28;20181;-84
2022/05/19 08:48:56;;;;;;;2.80;1.85;;;35.50;1.00;;;;;;5042371;28;20248;-83
2022/05/19 08:51:28;;;;;;;6.32;2.20;;;35.50;1.00;;;;;;5044075;28;20185;-84
2022/05/19 08:54:03;;;;;;;12.82;2.50;;;35.70;1.00;;;;;;5045089;28;20205;-83
2022/05/19 08:56:36;;;;;;;4.75;2.22;;;35.80;1.00;;;;;;5047963;28;20298;-85
2022/05/19 08:59:14;;;;;;;3.60;2.28;;;35.90;1.00;;;;;;5061661;28;20267;-82
2022/05/19 09:01:47;;;;;;;5.07;2.25;;;35.80;1.00;;;;;;5064621;28;20192;-84
2022/05/19 09:04:35;;;;;;;4.63;2.30;;;35.60;1.00;;;;;;5061169;28;20255;-83
2022/05/19 09:10:11;;;;;;;5.03;2.20;;;35.50;1.00;;;;;;5063651;28;20168;-84
2022/05/19 09:12:39;;;;;;;2.80;2.00;;;35.80;1.00;;;;;;5065082;28;20191;-86
2022/05/19 09:15:08;;;;;;;;;;;35.80;1.00;;;;;;5055204;28;20258;-85
2022/05/19 09:17:44;;;;;;;8.27;2.10;;;35.80;1.00;;;;;;5059243;28;20426;-83
2022/05/19 09:20:14;;;;;;;3.20;2.17;;;35.70;1.00;;;;;;5061487;28;20206;-86
2022/05/19 09:22:41;;;;;;;;;;;35.40;1.00;;;;;;5058020;28;20099;-85
2022/05/19 09:25:13;;;;;;;8.10;3.45;;;35.40;1.00;;;;;;5060202;28;20177;-85
2022/05/19 09:27:41;;;;;;;;;;;35.10;1.00;;;;;;5063089;28;20036;-83
2022/05/19 09:30:15;;;;;;;5.00;2.65;;;34.80;1.00;;;;;;5060919;28;20261;-85
2022/05/19 09:32:52;;;;;;;6.22;2.50;;;34.40;1.00;;;;;;5057305;28;20296;-86
2022/05/19 09:35:42;;;;;;;6.53;2.65;;;34.00;1.00;;;;;;5059081;28;20177;-83
2022/05/19 09:38:18;;;;;;;6.10;2.60;;;33.70;1.00;;;;;;5058908;28;20200;-83
2022/05/19 09:40:49;;;;;;;5.28;2.78;;;33.30;1.00;;;;;;5058220;28;20227;-83
2022/05/19 09:43:19;;;;;;;5.07;3.08;;;33.00;1.00;;;;;;5060230;28;20181;-83
2022/05/19 09:45:48;;;;;;;6.93;2.88;;;32.80;1.00;;;;;;5062193;28;20272;-85
2022/05/19 09:48:16;;;;;;;6.15;2.72;;;32.60;1.00;;;;;;5060001;28;20189;-85
2022/05/19 09:50:46;;;;;;;4.88;2.60;;;32.60;1.00;;;;;;5060466;28;20200;-84
2022/05/19 09:53:18;;;;;;;4.88;3.10;;;32.60;1.00;;;;;;5060311;28;20221;-84
2022/05/19 09:55:47;;;;;;;5.22;2.67;;;32.40;1.00;;;;;;5053282;28;20701;-85
2022/05/19 09:58:17;;;;;;;7.32;2.80;;;32.40;1.00;;;;;;5039382;28;20228;-83
2022/05/19 10:00:56;;;;;;;4.47;3.10;;;32.30;1.00;;;;;;5041702;28;20245;-84
2022/05/19 10:03:44;;;;;;;6.93;2.60;;;32.30;1.00;;;;;;5034847;28;20190;-83
2022/05/19 10:06:18;;;;;;;6.03;2.97;;;32.20;1.00;;;;;;5037377;28;20193;-85
2022/05/19 10:09:00;;;;;;;5.05;2.75;;;32.10;1.00;;;;;;5039624;28;20203;-84
2022/05/19 10:11:32;;;;;;;8.30;3.42;;;32.00;1.00;;;;;;5038524;28;20186;-86
2022/05/19 10:14:06;;;;;;;;;;;31.90;1.00;;;;;;5036634;28;20244;-83
2022/05/19 10:16:44;;;;;;;6.22;2.60;;;31.80;1.00;;;;;;5037290;28;20082;-83
2022/05/19 10:19:24;;;;;;;7.75;2.95;;;31.90;1.00;;;;;;5036850;28;20196;-84
2022/05/19 10:22:04;;;;;;;6.70;2.95;;;31.90;1.00;;;;;;5039545;28;20181;-84
2022/05/19 10:25:03;;;;;;;9.25;4.00;;;32.00;1.00;;;;;;5039598;28;20205;-84
2022/05/19 10:33:21;;;;;;;5.50;3.03;;;32.00;1.00;;;;;;5038316;28;20228;-84
2022/05/19 10:36:09;;;;;;;4.82;3.08;;;32.10;1.00;;;;;;5040052;28;20217;-87
2022/05/19 10:39:02;;;;;;;5.82;3.10;;;32.10;1.00;;;;;;5055363;28;20224;-88
2022/05/19 10:41:50;;;;;;;4.60;2.97;;;32.00;1.00;;;;;;5060886;28;20221;-85
2022/05/19 10:44:58;;;;;;;5.88;2.80;;;32.10;1.00;;;;;;5060136;28;20276;-85
2022/05/19 10:47:42;;;;;;;8.00;3.20;;;32.10;1.00;;;;;;5060626;28;20219;-85
2022/05/19 10:50:26;;;;;;;4.53;2.80;;;32.10;1.00;;;;;;5057780;28;20213;-82
2022/05/19 10:53:22;;;;;;;8.13;3.50;;;32.00;1.00;;;;;;5057972;28;20181;-82
2022/05/19 10:56:02;;;;;;;20.73;4.25;;;32.00;1.00;;;;;;5061315;28;20197;-84
2022/05/19 10:59:09;;;;;;;5.40;2.80;;;31.90;1.00;;;;;;5064361;28;20185;-89
2022/05/19 11:01:52;;;;;;;4.00;3.13;;;31.60;1.00;;;;;;5057614;28;20698;-82
2022/05/19 11:04:47;;;;;;;4.55;3.00;;;31.60;1.00;;;;;;5066724;28;20211;-85
2022/05/19 11:07:49;;;;;;;4.80;3.00;;;31.50;1.00;;;;;;5038403;28;20197;-84
2022/05/19 11:10:32;;;;;;;4.15;3.58;;;31.50;1.00;;;;;;5045062;28;20226;-87
2022/05/19 11:13:09;;;;;;;5.15;3.05;;;31.30;1.00;;;;;;5043828;28;20268;-85
2022/05/19 11:15:44;;;;;;;6.88;3.03;;;31.10;1.00;;;;;;5058561;28;20217;-87
2022/05/19 11:18:18;;;;;;;5.20;2.92;;;31.00;1.00;;;;;;5059252;28;20184;-87
2022/05/19 11:20:59;;;;;;;6.55;3.60;;;31.10;1.00;;;;;;5059548;28;20173;-85
2022/05/19 11:23:34;;;;;;;5.30;3.17;;;31.00;1.00;;;;;;5057416;28;20652;-86
2022/05/19 11:26:27;;;;;;;3.88;3.03;;;30.90;1.00;;;;;;5059070;28;20185;-82
2022/05/19 11:29:08;;;;;;;;;;;30.90;1.00;;;;;;5057987;28;20202;-85
2022/05/19 11:31:38;;;;;;;;;;;31.10;1.00;;;;;;5059212;28;19921;-84
2022/05/19 11:34:10;;;;;;;;;;;31.10;1.00;;;;;;5058941;28;19972;-85
2022/05/19 11:36:40;;;;;;;;;;;31.20;1.00;;;;;;5074092;28;19967;-87
2022/05/19 11:39:10;;;;;;;;;;;31.20;1.00;;;;;;5079401;28;19988;-84
2022/05/19 11:41:38;;;;;;;;;;;31.20;1.00;;;;;;5079332;28;19905;-84
2022/05/19 11:44:11;;;;;;;;;;;31.20;1.00;;;;;;5079583;28;19927;-86
2022/05/19 11:46:43;;;;;;;;;;;31.20;1.00;;;;;;5079174;28;19921;-85
2022/05/19 11:55:17;;;;;;;;;;;31.20;1.00;;;;;;5059255;28;19927;-86
2022/05/19 11:57:47;;;;;;;;;;;31.20;1.00;;;;;;5061105;28;19928;-84
2022/05/19 12:00:20;;;;;;;;;;;31.30;1.00;;;;;;5060747;28;20269;-84
2022/05/19 12:02:49;;;;;;;;;;;31.20;1.00;;;;;;5058946;28;20328;-88
2022/05/19 12:05:21;;;;;;;;;;;31.20;1.00;;;;;;5056832;28;19920;-83
2022/05/19 12:07:50;;;;;;;;;;;31.20;1.00;;;;;;5044287;28;19921;-83
2022/05/19 12:10:19;;;;;;;;;;;31.20;1.00;;;;;;5039516;28;19920;-86
2022/05/19 12:12:50;;;;;;;;;;;31.00;1.00;;;;;;5038404;28;19921;-83
2022/05/19 12:15:18;;;;;;;;;;;31.00;1.00;;;;;;5039183;28;19967;-84
2022/05/19 12:17:46;;;;;;;;;;;31.00;1.00;;;;;;5050266;28;19928;-86
2022/05/19 12:20:49;;;;;;;4.90;3.00;;;31.00;1.00;;;;;;5039879;28;20448;-82
2022/05/19 12:23:27;;;;;;;4.20;2.70;;;31.10;1.00;;;;;;5045841;28;20189;-84
2022/05/19 12:25:59;;;;;;;3.92;2.70;;;31.20;1.00;;;;;;5056943;28;20201;-87
2022/05/19 12:28:48;;;;;;;3.47;2.90;;;31.10;1.00;;;;;;5058340;28;20230;-85
2022/05/19 12:34:08;;;;;;;9.80;2.80;;;31.00;1.00;;;;;;5058814;28;20208;-84
2022/05/19 12:36:45;;;;;;;4.28;2.90;;;30.90;1.00;;;;;;5071929;28;20197;-84
2022/05/19 12:39:45;;;;;;;3.33;2.40;;;30.80;1.00;;;;;;5057337;28;20257;-85
2022/05/19 12:42:18;;;;;;;5.80;3.28;;;30.70;1.00;;;;;;5057559;28;20188;-84
2022/05/19 12:44:56;;;;;;;6.00;3.03;;;30.60;1.00;;;;;;5057247;28;20224;-84
2022/05/19 12:50:49;;;;;;;12.75;3.50;;;30.50;1.00;;;;;;4983590;28;20205;-85
2022/05/19 12:53:49;;;;;;;8.38;2.88;;;30.60;1.00;;;;;;5040983;28;20288;-82
2022/05/19 12:56:46;;;;;;;2.88;2.40;;;30.60;1.00;;;;;;5039581;28;20616;-85
2022/05/19 12:59:44;;;;;;;6.32;2.53;;;30.60;1.00;;;;;;5002585;28;20256;-84
2022/05/19 13:02:21;;;;;;;3.53;2.20;;;30.60;1.00;;;;;;5037759;28;20182;-86
2022/05/19 13:04:54;;;;;;;;;;;30.60;1.00;;;;;;5041902;28;20229;-84
2022/05/19 13:07:29;;;;;;;;;;;30.70;1.00;;;;;;5042505;28;19928;-88
2022/05/19 13:10:08;;;;;;;;;;;30.90;1.00;;;;;;5041727;28;20341;-86
2022/05/19 13:12:47;;;;;;;;;;;30.90;1.00;;;;;;5060320;28;19920;-83
2022/05/19 13:15:21;;;;;;;;;;;31.00;1.00;;;;;;5058345;28;19925;-86
2022/05/19 13:17:47;;;;;;;;;;;31.10;1.00;;;;;;5062087;28;19982;-86
2022/05/19 13:20:16;;;;;;;;;;;31.20;1.00;;;;;;5061167;28;19927;-83
2022/05/19 13:22:48;;;;;;;;;;;31.30;1.00;;;;;;5063760;28;19925;-85
2022/05/19 13:25:14;;;;;;;;;;;31.30;1.00;;;;;;5041415;28;19975;-83
2022/05/19 13:30:43;;;;;;;;;;;31.50;1.00;;;;;;5060791;28;20433;-86
2022/05/19 13:33:11;;;;;;;;;;;31.50;1.00;;;;;;5061782;28;19921;-85
2022/05/19 13:35:38;;;;;;;;;;;31.50;1.00;;;;;;5060042;28;20435;-84
2022/05/19 13:38:19;;;;;;;;;;;31.50;1.00;;;;;;5057800;28;20015;-83
2022/05/19 13:40:46;;;;;;;;;;;31.40;1.00;;;;;;5062795;28;19984;-85
2022/05/19 13:43:14;;;;;;;;;;;31.40;1.00;;;;;;5061526;28;19967;-87
2022/05/19 13:45:46;;;;;;;;;;;31.30;1.00;;;;;;5058126;28;20377;-83
2022/05/19 13:48:16;;;;;;;;;;;31.30;1.00;;;;;;5057392;28;19925;-84
2022/05/19 13:50:45;;;;;;;;;;;31.20;1.00;;;;;;5063558;28;19924;-85
2022/05/19 13:53:15;;;;;;;;;;;31.10;1.00;;;;;;5057709;28;19921;-85
2022/05/19 13:55:47;;;;;;;;;;;31.10;1.00;;;;;;5064334;28;19943;-86
2022/05/19 13:58:16;;;;;;;;;;;31.00;1.00;;;;;;5063203;28;19925;-82
2022/05/19 14:00:45;;;;;;;;;;;30.90;1.00;;;;;;5055213;28;20389;-88
2022/05/19 14:03:13;;;;;;;;;;;30.80;1.00;;;;;;5053239;28;19988;-87
2022/05/19 14:05:41;;;;;;;;;;;30.70;1.00;;;;;;5058798;28;19943;-83
2022/05/19 14:08:09;;;;;;;;;;;30.60;1.00;;;;;;5059515;28;19920;-84